RCSS METAR and TAF | Updated Today

RCSS METAR

Taipei Songshan Airport

Observation time: 37 min. ago

RCSS 080630Z 09014KT 9999 FEW020 BKN060 24/13 Q1022 NOSIG RMK A3018

Need help? Read our tutorial on how to read METARs or read the parsed version below.

Taipei Songshan Airport (RCSS) METAR

  • Weather conditions on Wed, 08 Dec 2021 06:30:00 +0000 (37 min. ago):
  • Present conditions: Dry
  • Clouds: A few at 610 meters; broken sky at 1829 meters
  • Visibility: Greater than 10 km
  • Wind: 90 degrees at 14 knots
  • Temperature: 24 celsius
  • Dew point: 13 celsius
  • Pressure: 1022 millibars
  • Remarks: A3018


Useful to know...

RCSS TAF

Taipei Songshan Airport

TAF RCSS 080500Z 0806/0906 08010KT 9999 FEW015 BKN032 TEMPO 0806/0812 09015KT TEMPO 0820/0902 FEW010 BKN020 BKN040
Observation time: 2:07 hr. ago
Need help? Read our tutorial on how to read TAFs or read the parsed version below.

Parsed version of TAF for Taipei Songshan Airport (RCSS)

  • From 08 December at 06:00 UTC, to day 09 of the month at 06:00 UTC
  • Clouds: A few at 457 meters; broken sky at 975 meters
  • Visibility: Greater than 10 km
  • Wind: 80 degrees at 10
  • Expected to arise temporarily, from 08 December at 06:00 UTC, to day 08 of the month at 12:00 UTC
  • Wind: 90 degrees at 15
  • Expected to arise temporarily, from 08 December at 20:00 UTC, to day 09 of the month at 02:00 UTC
  • Clouds: A few at 305 meters; broken sky at 610 meters; broken sky at 1219 meters